Terminal Aerodrome Forecast
Issued by NWS

Home | Current Version | Previous Version | Text Only | Print | Product List | Glossary On
Versions: 1 2 3 4 5 6 7 8 9 10 11 12 13 14
440
FTUS42 KTAE 142336
TAFECP
TAF
KECP 142336Z 1500/1524 16005KT P6SM BKN250
     FM150900 10004KT 6SM BR BKN020
     FM151500 14015G20KT P6SM -RA BKN025=

USA.gov is the U.S. government's official web portal to all federal, state and local government web resources and services.